Lake Dynasty — 3FZB2 — position and weather

sailwx.info

Track history (hours):
 
Tides and Currents Weather Stations Pressure Air Temp Water Temp Dewpoint Dewpoint Depression Visibility Wind Speed Wind Dir Waves Ship Positions

Lake Dynasty

Last reported at 2015-Jun-11 13:33 UTC. Time now 2015-Jun-30 14:28 UTC.
Position N 49°55' W 003°17'.
Warning: this ship's position is 19 days out of date.

Length 182 m; draft 9.5 m.

Type: Cargo ship. MMSI: 370957000.

Date/timePositionNaut miles runAvg speedWind from/ knotsBaromVisibWave heightAir tempDewpointWater temp
2015-Jun-11 13:33N 49°55' W 003°17'1211.7
2015-Jun-11 12:32N 49°59' W 002°59'1212.3
2015-Jun-11 11:33N 50°02' W 002°41'1313.3
2015-Jun-11 10:33N 50°06' W 002°21'1514.5
2015-Jun-11 09:33N 50°10' W 001°59'6014.1
2015-Jun-11 05:16N 50°27' W 000°28'811.8
2015-Jun-11 04:33N 50°29' W 000°16'1111.3
2015-Jun-11 03:33N 50°32' E 000°02'1111.1
2015-Jun-11 02:33N 50°35' E 000°18'1211.8
2015-Jun-11 01:33N 50°38' E 000°36'1313.1
2015-Jun-11 00:33N 50°46' E 000°53'1413.9
2015-Jun-10 23:33N 50°55' E 001°10'1413.8
2015-Jun-10 22:33N 51°04' E 001°27'1312.9
2015-Jun-10 21:33N 51°12' E 001°42'1211.7
2015-Jun-10 20:33N 51°22' E 001°52'1111.4
2015-Jun-10 19:33N 51°31' E 002°02'1211.8
2015-Jun-10 18:33N 51°40' E 002°15'1212.3
2015-Jun-10 17:33N 51°50' E 002°28'1312.7
2015-Jun-10 16:33N 52°01' E 002°36'1413.8
2015-Jun-10 15:31N 52°15' E 002°41'1814.4
2015-Jun-10 14:17N 52°31' E 002°54'1114.1
2015-Jun-10 13:30N 52°41' E 003°03'1513.5
2015-Jun-10 12:22N 52°54' E 003°14'1212.7
2015-Jun-10 11:25N 53°06' E 003°21'4712.1
2015-Jun-10 07:32N 53°49' E 003°54'1313.4
2015-Jun-10 06:33N 53°57' E 004°11'1313.1
2015-Jun-10 05:33N 54°02' E 004°31'1313.1
2015-Jun-10 04:33N 54°04' E 004°53'1312.9
2015-Jun-10 03:33N 54°06' E 005°15'1212.4
2015-Jun-10 02:33N 54°08' E 005°36'1211.9
2015-Jun-10 01:33N 54°09' E 005°56'1211.8
2015-Jun-10 00:33N 54°11' E 006°16'1412.0
2015-Jun-09 23:25N 54°12' E 006°40'1112.6
2015-Jun-09 22:33N 54°12' E 006°58'1313.1
2015-Jun-09 21:33N 54°12' E 007°21'1312.8
2015-Jun-09 20:33N 54°09' E 007°42'1313.1
2015-Jun-09 19:33N 54°02' E 008°01'1312.8
2015-Jun-09 18:33N 53°60' E 008°22'1211.7
2015-Jun-09 17:33N 53°55' E 008°41'8 8.4
2015-Jun-09 16:33N 53°50' E 008°52'9 8.7
2015-Jun-09 15:32N 53°53' E 009°07'7 7.3
2015-Jun-09 14:33N 53°51' E 009°19'1211.6
2015-Jun-09 13:33N 53°42' E 009°30'1111.0
2015-Jun-09 12:33N 53°34' E 009°43'8 8.5
2015-Jun-09 11:33N 53°31' E 009°56'1 1.1
2015-Jun-09 10:32N 53°30' E 009°58'0 0.0
2015-Jun-09 09:32N 53°30' E 009°58'0 0.0
2015-Jun-09 08:26N 53°30' E 009°58'0 0.0
2015-Jun-09 07:33N 53°30' E 009°58'0 0.0
2015-Jun-09 06:30N 53°30' E 009°58'0 0.0
2015-Jun-09 05:33N 53°30' E 009°58'0 0.0
2015-Jun-09 04:33N 53°30' E 009°58'0 0.0
2015-Jun-09 03:21N 53°30' E 009°58'0 0.0
2015-Jun-09 02:30N 53°30' E 009°58'0 0.0
2015-Jun-09 01:32N 53°30' E 009°58'0 0.0
2015-Jun-09 00:32N 53°30' E 009°58'0 0.0
2015-Jun-08 23:23N 53°30' E 009°58'0 0.0
2015-Jun-08 22:32N 53°30' E 009°58'0 0.0
2015-Jun-08 21:29N 53°30' E 009°58'0 0.0
2015-Jun-08 20:29N 53°30' E 009°58'0 0.0
2015-Jun-08 19:29N 53°30' E 009°58'0 0.0
2015-Jun-08 18:32N 53°30' E 009°58'0 0.0
2015-Jun-08 17:32N 53°30' E 009°58'0 0.0
2015-Jun-08 16:32N 53°30' E 009°58'0 0.0
2015-Jun-08 15:29N 53°30' E 009°58'0 0.0
2015-Jun-08 14:29N 53°30' E 009°58'0 0.0
2015-Jun-08 13:32N 53°30' E 009°58'0 0.0
2015-Jun-08 12:29N 53°30' E 009°58'0 0.0
2015-Jun-08 11:29N 53°30' E 009°58'0 0.0
2015-Jun-08 10:32N 53°30' E 009°58'0 0.0
2015-Jun-08 09:29N 53°30' E 009°58'0 0.0
2015-Jun-08 08:32N 53°30' E 009°58'0 0.0
2015-Jun-08 07:13N 53°30' E 009°58'0 0.0
2015-Jun-08 06:24N 53°30' E 009°58'0 0.0
2015-Jun-08 05:32N 53°30' E 009°58'0 0.0
2015-Jun-08 04:20N 53°30' E 009°58'0 0.0
2015-Jun-08 03:33N 53°30' E 009°58'3 2.9
2015-Jun-08 02:33N 53°32' E 009°55'10 9.7
2015-Jun-08 01:33N 53°34' E 009°39'1111.2
2015-Jun-08 00:33N 53°43' E 009°28'1110.8
2015-Jun-07 23:33N 53°52' E 009°17'9 8.8
2015-Jun-07 22:33N 53°51' E 009°02'9 9.2
2015-Jun-07 21:33N 53°51' E 008°46'9 9.3
2015-Jun-07 20:34N 53°58' E 008°36'1110.8
2015-Jun-07 19:33N 53°59' E 008°17'8 8.2
2015-Jun-07 18:33N 53°60' E 008°04'5 5.0
2015-Jun-07 17:33N 54°02' E 008°11'0 0.4
2015-Jun-07 16:30N 54°02' E 008°11'0 0.0
2015-Jun-07 15:33N 54°02' E 008°12'0 0.0
2015-Jun-07 14:33N 54°02' E 008°12'0 0.0
2015-Jun-07 13:33N 54°02' E 008°12'0 0.0
2015-Jun-07 12:33N 54°02' E 008°12'0 0.0
2015-Jun-07 11:33N 54°02' E 008°12'0 0.0
2015-Jun-07 10:33N 54°02' E 008°12'0 0.0
2015-Jun-07 09:33N 54°02' E 008°12'0 0.0
2015-Jun-07 08:33N 54°02' E 008°12'0 0.1
2015-Jun-07 07:33N 54°02' E 008°11'0 0.1
2015-Jun-07 06:33N 54°02' E 008°11'0 0.0
2015-Jun-07 05:33N 54°02' E 008°11'0 0.1
2015-Jun-07 04:33N 54°02' E 008°11'0 0.1
2015-Jun-07 03:33N 54°02' E 008°11'0 0.0
2015-Jun-07 02:33N 54°02' E 008°12'0 0.0
2015-Jun-07 01:33N 54°02' E 008°11'0 0.0
2015-Jun-07 00:33N 54°02' E 008°12'0 0.0
2015-Jun-06 23:33N 54°02' E 008°12'0 0.0
2015-Jun-06 22:33N 54°02' E 008°12'0 0.0
2015-Jun-06 21:33N 54°02' E 008°12'0 0.0
2015-Jun-06 20:33N 54°02' E 008°11'0 0.1
2015-Jun-06 19:33N 54°02' E 008°11'0 0.1
2015-Jun-06 18:33N 54°02' E 008°11'0 0.1
2015-Jun-06 17:33N 54°02' E 008°11'0 0.1
2015-Jun-06 16:33N 54°02' E 008°11'0 0.0
2015-Jun-06 15:33N 54°02' E 008°12'0 0.0
2015-Jun-06 14:33N 54°02' E 008°12'0 0.0
2015-Jun-06 13:33N 54°02' E 008°12'0 0.0
2015-Jun-06 12:33N 54°02' E 008°12'0 0.0
2015-Jun-06 11:33N 54°02' E 008°12'0 0.0
2015-Jun-06 10:33N 54°02' E 008°12'0 0.0
2015-Jun-06 09:33N 54°02' E 008°12'0 0.1
2015-Jun-06 08:33N 54°02' E 008°11'5 4.6
2015-Jun-06 07:33N 54°03' E 008°04'1110.6
2015-Jun-06 06:33N 54°06' E 007°46'10 9.6
2015-Jun-06 05:33N 54°09' E 007°31'9 9.1
2015-Jun-06 04:34N 54°09' E 007°16'10 9.7
2015-Jun-06 03:33N 54°09' E 006°59'2613.1
2015-Jun-06 01:33N 54°08' E 006°14'1413.7
2015-Jun-06 00:33N 54°06' E 005°51'1414.1
2015-Jun-05 23:33N 54°04' E 005°28'1414.4
2015-Jun-05 22:33N 54°01' E 005°03'5 5.0
2015-Jun-05 21:32N 53°59' E 004°55'2 2.3
2015-Jun-05 20:33N 53°58' E 004°53'2 1.5
2015-Jun-05 19:33N 53°57' E 004°51'1 1.3
2015-Jun-05 18:33N 53°56' E 004°49'6 5.7
2015-Jun-05 17:33N 53°54' E 004°40'1 0.9
2015-Jun-05 16:27N 53°53' E 004°40'2 1.9
2015-Jun-05 15:33N 53°53' E 004°42'4 4.3
2015-Jun-05 14:33N 53°52' E 004°35'2 2.0
2015-Jun-05 13:31N 53°52' E 004°39'1 1.3
2015-Jun-05 12:26N 53°53' E 004°41'1 0.4
2015-Jun-05 10:33N 53°54' E 004°41'6 5.9
2015-Jun-05 09:33N 53°51' E 004°32'1313.2
2015-Jun-05 08:33N 53°43' E 004°15'1414.1
2015-Jun-05 07:32N 53°35' E 003°55'1313.8
2015-Jun-05 06:33N 53°24' E 003°41'2914.3
2015-Jun-05 04:33N 52°58' E 003°23'1514.5
2015-Jun-05 03:31N 52°44' E 003°12'1414.3
2015-Jun-05 02:30N 52°32' E 003°00'1312.3
2015-Jun-05 01:27N 52°19' E 003°08'1112.8
2015-Jun-05 00:33N 52°12' E 003°22'1313.2
2015-Jun-04 23:33N 52°05' E 003°40'1110.7
2015-Jun-04 22:33N 52°02' E 003°57'6 6.5
2015-Jun-04 21:34N 51°58' E 004°06'1 1.4
2015-Jun-04 20:31N 51°57' E 004°08'0 0.0
2015-Jun-04 19:34N 51°57' E 004°08'0 0.0
2015-Jun-04 18:31N 51°57' E 004°08'0 0.0
2015-Jun-04 17:31N 51°57' E 004°08'0 0.0
2015-Jun-04 16:31N 51°57' E 004°08'0 0.0
2015-Jun-04 15:34N 51°57' E 004°08'0 0.0
2015-Jun-04 14:34N 51°57' E 004°08'0 0.0
2015-Jun-04 13:31N 51°57' E 004°08'0 0.0
2015-Jun-04 12:31N 51°57' E 004°08'0 0.0
2015-Jun-04 11:34N 51°57' E 004°08'0 0.0
2015-Jun-04 10:31N 51°57' E 004°08'0 0.0
2015-Jun-04 09:34N 51°57' E 004°08'0 0.0
2015-Jun-04 08:34N 51°57' E 004°08'0 0.0
2015-Jun-04 07:34N 51°57' E 004°08'0 0.0
2015-Jun-04 06:34N 51°57' E 004°08'0 0.0
2015-Jun-04 05:34N 51°57' E 004°08'0 0.0
2015-Jun-04 04:34N 51°57' E 004°08'0 0.0
2015-Jun-04 03:34N 51°57' E 004°08'0 0.0
2015-Jun-04 02:31N 51°57' E 004°08'0 0.0
2015-Jun-04 01:33N 51°57' E 004°08'0 0.0
2015-Jun-04 00:34N 51°57' E 004°08'0 0.0
2015-Jun-03 23:34N 51°57' E 004°08'0 0.0
2015-Jun-03 22:34N 51°57' E 004°08'0 0.0
2015-Jun-03 21:34N 51°57' E 004°08'0 0.0
2015-Jun-03 20:34N 51°57' E 004°08'0 0.0
2015-Jun-03 19:34N 51°57' E 004°08'0 0.0
2015-Jun-03 18:33N 51°57' E 004°08'0 0.0
2015-Jun-03 17:33N 51°57' E 004°08'0 0.0
2015-Jun-03 16:34N 51°57' E 004°08'0 0.0
2015-Jun-03 15:34N 51°57' E 004°08'0 0.0
2015-Jun-03 14:33N 51°57' E 004°08'0 0.0
2015-Jun-03 13:33N 51°57' E 004°08'0 0.0
2015-Jun-03 12:33N 51°57' E 004°08'0 0.0
2015-Jun-03 11:34N 51°57' E 004°08'0 0.0
2015-Jun-03 10:34N 51°57' E 004°08'0 0.0
2015-Jun-03 09:33N 51°57' E 004°08'0 0.0
2015-Jun-03 08:30N 51°57' E 004°08'0 0.0
2015-Jun-03 07:33N 51°57' E 004°08'0 0.0
2015-Jun-03 06:33N 51°57' E 004°08'0 0.0
2015-Jun-03 05:33N 51°57' E 004°08'0 0.0
2015-Jun-03 04:33N 51°57' E 004°08'0 0.0
2015-Jun-03 03:33N 51°57' E 004°08'0 0.0
2015-Jun-03 02:33N 51°57' E 004°08'0 0.0
2015-Jun-03 01:33N 51°57' E 004°08'0 0.0
2015-Jun-03 00:33N 51°57' E 004°08'0 0.0
2015-Jun-02 23:33N 51°57' E 004°08'0 0.0
2015-Jun-02 22:33N 51°57' E 004°08'0 0.0
2015-Jun-02 21:34N 51°57' E 004°08'0 0.0
2015-Jun-02 20:33N 51°57' E 004°08'0 0.0
2015-Jun-02 19:33N 51°57' E 004°08'0 0.0
2015-Jun-02 18:33N 51°57' E 004°08'0 0.0
2015-Jun-02 17:33N 51°57' E 004°08'0 0.0
2015-Jun-02 16:33N 51°57' E 004°08'0 0.0
2015-Jun-02 15:33N 51°57' E 004°08'0 0.0
2015-Jun-02 14:33N 51°57' E 004°08'0 0.0
2015-Jun-02 13:33N 51°57' E 004°08'0 0.0
2015-Jun-02 12:33N 51°57' E 004°08'0 0.0
2015-Jun-02 11:33N 51°57' E 004°08'0 0.0
2015-Jun-02 10:33N 51°57' E 004°08'0 0.0
2015-Jun-02 09:33N 51°57' E 004°08'0 0.0
2015-Jun-02 08:34N 51°57' E 004°08'0 0.0
2015-Jun-02 07:33N 51°57' E 004°08'0 0.0
2015-Jun-02 06:33N 51°57' E 004°08'0 0.0
2015-Jun-02 05:33N 51°57' E 004°08'0 0.0
2015-Jun-02 04:33N 51°57' E 004°08'0 0.0
2015-Jun-02 03:30N 51°57' E 004°08'0 0.0
2015-Jun-02 02:33N 51°57' E 004°08'0 0.0
2015-Jun-02 01:33N 51°57' E 004°08'0 0.0
2015-Jun-02 00:33N 51°57' E 004°08'0 0.0
2015-Jun-01 23:33N 51°57' E 004°08'0 0.0
2015-Jun-01 22:33N 51°57' E 004°08'0 0.0
2015-Jun-01 21:34N 51°57' E 004°08'0 0.0
2015-Jun-01 20:33N 51°57' E 004°08'0 0.0
2015-Jun-01 19:33N 51°57' E 004°08'0 0.0
2015-Jun-01 18:33N 51°57' E 004°08'0 0.0
2015-Jun-01 17:33N 51°57' E 004°08'0 0.0
2015-Jun-01 16:33N 51°57' E 004°08'0 0.0
2015-Jun-01 15:33N 51°57' E 004°08'0 0.0
2015-Jun-01 14:33N 51°57' E 004°08'  
Track history (hours):
 
Tides and Currents Weather Stations Pressure Air Temp Water Temp Dewpoint Dewpoint Depression Visibility Wind Speed Wind Dir Waves Ship Positions

Lake Dynasty

Last reported at 2015-Jun-11 13:33 UTC. Time now 2015-Jun-30 14:28 UTC.
Position N 49°55' W 003°17'.
Warning: this ship's position is 19 days out of date.

Length 182 m; draft 9.5 m.

Type: Cargo ship. MMSI: 370957000.

Date/timePositionNaut miles runAvg speedWind from/ knotsBaromVisibWave heightAir tempDewpointWater temp
2015-Jun-11 13:33N 49°55' W 003°17'1211.7
2015-Jun-11 12:32N 49°59' W 002°59'1212.3
2015-Jun-11 11:33N 50°02' W 002°41'1313.3
2015-Jun-11 10:33N 50°06' W 002°21'1514.5
2015-Jun-11 09:33N 50°10' W 001°59'6014.1
2015-Jun-11 05:16N 50°27' W 000°28'811.8
2015-Jun-11 04:33N 50°29' W 000°16'1111.3
2015-Jun-11 03:33N 50°32' E 000°02'1111.1
2015-Jun-11 02:33N 50°35' E 000°18'1211.8
2015-Jun-11 01:33N 50°38' E 000°36'1313.1
2015-Jun-11 00:33N 50°46' E 000°53'1413.9
2015-Jun-10 23:33N 50°55' E 001°10'1413.8
2015-Jun-10 22:33N 51°04' E 001°27'1312.9
2015-Jun-10 21:33N 51°12' E 001°42'1211.7
2015-Jun-10 20:33N 51°22' E 001°52'1111.4
2015-Jun-10 19:33N 51°31' E 002°02'1211.8
2015-Jun-10 18:33N 51°40' E 002°15'1212.3
2015-Jun-10 17:33N 51°50' E 002°28'1312.7
2015-Jun-10 16:33N 52°01' E 002°36'1413.8
2015-Jun-10 15:31N 52°15' E 002°41'1814.4
2015-Jun-10 14:17N 52°31' E 002°54'1114.1
2015-Jun-10 13:30N 52°41' E 003°03'1513.5
2015-Jun-10 12:22N 52°54' E 003°14'1212.7
2015-Jun-10 11:25N 53°06' E 003°21'4712.1
2015-Jun-10 07:32N 53°49' E 003°54'1313.4
2015-Jun-10 06:33N 53°57' E 004°11'1313.1
2015-Jun-10 05:33N 54°02' E 004°31'1313.1
2015-Jun-10 04:33N 54°04' E 004°53'1312.9
2015-Jun-10 03:33N 54°06' E 005°15'1212.4
2015-Jun-10 02:33N 54°08' E 005°36'1211.9
2015-Jun-10 01:33N 54°09' E 005°56'1211.8
2015-Jun-10 00:33N 54°11' E 006°16'1412.0
2015-Jun-09 23:25N 54°12' E 006°40'1112.6
2015-Jun-09 22:33N 54°12' E 006°58'1313.1
2015-Jun-09 21:33N 54°12' E 007°21'1312.8
2015-Jun-09 20:33N 54°09' E 007°42'1313.1
2015-Jun-09 19:33N 54°02' E 008°01'1312.8
2015-Jun-09 18:33N 53°60' E 008°22'1211.7
2015-Jun-09 17:33N 53°55' E 008°41'8 8.4
2015-Jun-09 16:33N 53°50' E 008°52'9 8.7
2015-Jun-09 15:32N 53°53' E 009°07'7 7.3
2015-Jun-09 14:33N 53°51' E 009°19'1211.6
2015-Jun-09 13:33N 53°42' E 009°30'1111.0
2015-Jun-09 12:33N 53°34' E 009°43'8 8.5
2015-Jun-09 11:33N 53°31' E 009°56'1 1.1
2015-Jun-09 10:32N 53°30' E 009°58'0 0.0
2015-Jun-09 09:32N 53°30' E 009°58'0 0.0
2015-Jun-09 08:26N 53°30' E 009°58'0 0.0
2015-Jun-09 07:33N 53°30' E 009°58'0 0.0
2015-Jun-09 06:30N 53°30' E 009°58'0 0.0
2015-Jun-09 05:33N 53°30' E 009°58'0 0.0
2015-Jun-09 04:33N 53°30' E 009°58'0 0.0
2015-Jun-09 03:21N 53°30' E 009°58'0 0.0
2015-Jun-09 02:30N 53°30' E 009°58'0 0.0
2015-Jun-09 01:32N 53°30' E 009°58'0 0.0
2015-Jun-09 00:32N 53°30' E 009°58'0 0.0
2015-Jun-08 23:23N 53°30' E 009°58'0 0.0
2015-Jun-08 22:32N 53°30' E 009°58'0 0.0
2015-Jun-08 21:29N 53°30' E 009°58'0 0.0
2015-Jun-08 20:29N 53°30' E 009°58'0 0.0
2015-Jun-08 19:29N 53°30' E 009°58'0 0.0
2015-Jun-08 18:32N 53°30' E 009°58'0 0.0
2015-Jun-08 17:32N 53°30' E 009°58'0 0.0
2015-Jun-08 16:32N 53°30' E 009°58'0 0.0
2015-Jun-08 15:29N 53°30' E 009°58'0 0.0
2015-Jun-08 14:29N 53°30' E 009°58'0 0.0
2015-Jun-08 13:32N 53°30' E 009°58'0 0.0
2015-Jun-08 12:29N 53°30' E 009°58'0 0.0
2015-Jun-08 11:29N 53°30' E 009°58'0 0.0
2015-Jun-08 10:32N 53°30' E 009°58'0 0.0
2015-Jun-08 09:29N 53°30' E 009°58'0 0.0
2015-Jun-08 08:32N 53°30' E 009°58'0 0.0
2015-Jun-08 07:13N 53°30' E 009°58'0 0.0
2015-Jun-08 06:24N 53°30' E 009°58'0 0.0
2015-Jun-08 05:32N 53°30' E 009°58'0 0.0
2015-Jun-08 04:20N 53°30' E 009°58'0 0.0
2015-Jun-08 03:33N 53°30' E 009°58'3 2.9
2015-Jun-08 02:33N 53°32' E 009°55'10 9.7
2015-Jun-08 01:33N 53°34' E 009°39'1111.2
2015-Jun-08 00:33N 53°43' E 009°28'1110.8
2015-Jun-07 23:33N 53°52' E 009°17'9 8.8
2015-Jun-07 22:33N 53°51' E 009°02'9 9.2
2015-Jun-07 21:33N 53°51' E 008°46'9 9.3
2015-Jun-07 20:34N 53°58' E 008°36'1110.8
2015-Jun-07 19:33N 53°59' E 008°17'8 8.2
2015-Jun-07 18:33N 53°60' E 008°04'5 5.0
2015-Jun-07 17:33N 54°02' E 008°11'0 0.4
2015-Jun-07 16:30N 54°02' E 008°11'0 0.0
2015-Jun-07 15:33N 54°02' E 008°12'0 0.0
2015-Jun-07 14:33N 54°02' E 008°12'0 0.0
2015-Jun-07 13:33N 54°02' E 008°12'0 0.0
2015-Jun-07 12:33N 54°02' E 008°12'0 0.0
2015-Jun-07 11:33N 54°02' E 008°12'0 0.0
2015-Jun-07 10:33N 54°02' E 008°12'0 0.0
2015-Jun-07 09:33N 54°02' E 008°12'0 0.0
2015-Jun-07 08:33N 54°02' E 008°12'0 0.1
2015-Jun-07 07:33N 54°02' E 008°11'0 0.1
2015-Jun-07 06:33N 54°02' E 008°11'0 0.0
2015-Jun-07 05:33N 54°02' E 008°11'0 0.1
2015-Jun-07 04:33N 54°02' E 008°11'0 0.1
2015-Jun-07 03:33N 54°02' E 008°11'0 0.0
2015-Jun-07 02:33N 54°02' E 008°12'0 0.0
2015-Jun-07 01:33N 54°02' E 008°11'0 0.0
2015-Jun-07 00:33N 54°02' E 008°12'0 0.0
2015-Jun-06 23:33N 54°02' E 008°12'0 0.0
2015-Jun-06 22:33N 54°02' E 008°12'0 0.0
2015-Jun-06 21:33N 54°02' E 008°12'0 0.0
2015-Jun-06 20:33N 54°02' E 008°11'0 0.1
2015-Jun-06 19:33N 54°02' E 008°11'0 0.1
2015-Jun-06 18:33N 54°02' E 008°11'0 0.1
2015-Jun-06 17:33N 54°02' E 008°11'0 0.1
2015-Jun-06 16:33N 54°02' E 008°11'0 0.0
2015-Jun-06 15:33N 54°02' E 008°12'0 0.0
2015-Jun-06 14:33N 54°02' E 008°12'0 0.0
2015-Jun-06 13:33N 54°02' E 008°12'0 0.0
2015-Jun-06 12:33N 54°02' E 008°12'0 0.0
2015-Jun-06 11:33N 54°02' E 008°12'0 0.0
2015-Jun-06 10:33N 54°02' E 008°12'0 0.0
2015-Jun-06 09:33N 54°02' E 008°12'0 0.1
2015-Jun-06 08:33N 54°02' E 008°11'5 4.6
2015-Jun-06 07:33N 54°03' E 008°04'1110.6
2015-Jun-06 06:33N 54°06' E 007°46'10 9.6
2015-Jun-06 05:33N 54°09' E 007°31'9 9.1
2015-Jun-06 04:34N 54°09' E 007°16'10 9.7
2015-Jun-06 03:33N 54°09' E 006°59'2613.1
2015-Jun-06 01:33N 54°08' E 006°14'1413.7
2015-Jun-06 00:33N 54°06' E 005°51'1414.1
2015-Jun-05 23:33N 54°04' E 005°28'1414.4
2015-Jun-05 22:33N 54°01' E 005°03'5 5.0
2015-Jun-05 21:32N 53°59' E 004°55'2 2.3
2015-Jun-05 20:33N 53°58' E 004°53'2 1.5
2015-Jun-05 19:33N 53°57' E 004°51'1 1.3
2015-Jun-05 18:33N 53°56' E 004°49'6 5.7
2015-Jun-05 17:33N 53°54' E 004°40'1 0.9
2015-Jun-05 16:27N 53°53' E 004°40'2 1.9
2015-Jun-05 15:33N 53°53' E 004°42'4 4.3
2015-Jun-05 14:33N 53°52' E 004°35'2 2.0
2015-Jun-05 13:31N 53°52' E 004°39'1 1.3
2015-Jun-05 12:26N 53°53' E 004°41'1 0.4
2015-Jun-05 10:33N 53°54' E 004°41'6 5.9
2015-Jun-05 09:33N 53°51' E 004°32'1313.2
2015-Jun-05 08:33N 53°43' E 004°15'1414.1
2015-Jun-05 07:32N 53°35' E 003°55'1313.8
2015-Jun-05 06:33N 53°24' E 003°41'2914.3
2015-Jun-05 04:33N 52°58' E 003°23'1514.5
2015-Jun-05 03:31N 52°44' E 003°12'1414.3
2015-Jun-05 02:30N 52°32' E 003°00'1312.3
2015-Jun-05 01:27N 52°19' E 003°08'1112.8
2015-Jun-05 00:33N 52°12' E 003°22'1313.2
2015-Jun-04 23:33N 52°05' E 003°40'1110.7
2015-Jun-04 22:33N 52°02' E 003°57'6 6.5
2015-Jun-04 21:34N 51°58' E 004°06'1 1.4
2015-Jun-04 20:31N 51°57' E 004°08'0 0.0
2015-Jun-04 19:34N 51°57' E 004°08'0 0.0
2015-Jun-04 18:31N 51°57' E 004°08'0 0.0
2015-Jun-04 17:31N 51°57' E 004°08'0 0.0
2015-Jun-04 16:31N 51°57' E 004°08'0 0.0
2015-Jun-04 15:34N 51°57' E 004°08'0 0.0
2015-Jun-04 14:34N 51°57' E 004°08'0 0.0
2015-Jun-04 13:31N 51°57' E 004°08'0 0.0
2015-Jun-04 12:31N 51°57' E 004°08'0 0.0
2015-Jun-04 11:34N 51°57' E 004°08'0 0.0
2015-Jun-04 10:31N 51°57' E 004°08'0 0.0
2015-Jun-04 09:34N 51°57' E 004°08'0 0.0
2015-Jun-04 08:34N 51°57' E 004°08'0 0.0
2015-Jun-04 07:34N 51°57' E 004°08'0 0.0
2015-Jun-04 06:34N 51°57' E 004°08'0 0.0
2015-Jun-04 05:34N 51°57' E 004°08'0 0.0
2015-Jun-04 04:34N 51°57' E 004°08'0 0.0
2015-Jun-04 03:34N 51°57' E 004°08'0 0.0
2015-Jun-04 02:31N 51°57' E 004°08'0 0.0
2015-Jun-04 01:33N 51°57' E 004°08'0 0.0
2015-Jun-04 00:34N 51°57' E 004°08'0 0.0
2015-Jun-03 23:34N 51°57' E 004°08'0 0.0
2015-Jun-03 22:34N 51°57' E 004°08'0 0.0
2015-Jun-03 21:34N 51°57' E 004°08'0 0.0
2015-Jun-03 20:34N 51°57' E 004°08'0 0.0
2015-Jun-03 19:34N 51°57' E 004°08'0 0.0
2015-Jun-03 18:33N 51°57' E 004°08'0 0.0
2015-Jun-03 17:33N 51°57' E 004°08'0 0.0
2015-Jun-03 16:34N 51°57' E 004°08'0 0.0
2015-Jun-03 15:34N 51°57' E 004°08'0 0.0
2015-Jun-03 14:33N 51°57' E 004°08'0 0.0
2015-Jun-03 13:33N 51°57' E 004°08'0 0.0
2015-Jun-03 12:33N 51°57' E 004°08'0 0.0
2015-Jun-03 11:34N 51°57' E 004°08'0 0.0
2015-Jun-03 10:34N 51°57' E 004°08'0 0.0
2015-Jun-03 09:33N 51°57' E 004°08'0 0.0
2015-Jun-03 08:30N 51°57' E 004°08'0 0.0
2015-Jun-03 07:33N 51°57' E 004°08'0 0.0
2015-Jun-03 06:33N 51°57' E 004°08'0 0.0
2015-Jun-03 05:33N 51°57' E 004°08'0 0.0
2015-Jun-03 04:33N 51°57' E 004°08'0 0.0
2015-Jun-03 03:33N 51°57' E 004°08'0 0.0
2015-Jun-03 02:33N 51°57' E 004°08'0 0.0
2015-Jun-03 01:33N 51°57' E 004°08'0 0.0
2015-Jun-03 00:33N 51°57' E 004°08'0 0.0
2015-Jun-02 23:33N 51°57' E 004°08'0 0.0
2015-Jun-02 22:33N 51°57' E 004°08'0 0.0
2015-Jun-02 21:34N 51°57' E 004°08'0 0.0
2015-Jun-02 20:33N 51°57' E 004°08'0 0.0
2015-Jun-02 19:33N 51°57' E 004°08'0 0.0
2015-Jun-02 18:33N 51°57' E 004°08'0 0.0
2015-Jun-02 17:33N 51°57' E 004°08'0 0.0
2015-Jun-02 16:33N 51°57' E 004°08'0 0.0
2015-Jun-02 15:33N 51°57' E 004°08'0 0.0
2015-Jun-02 14:33N 51°57' E 004°08'0 0.0
2015-Jun-02 13:33N 51°57' E 004°08'0 0.0
2015-Jun-02 12:33N 51°57' E 004°08'0 0.0
2015-Jun-02 11:33N 51°57' E 004°08'0 0.0
2015-Jun-02 10:33N 51°57' E 004°08'0 0.0
2015-Jun-02 09:33N 51°57' E 004°08'0 0.0
2015-Jun-02 08:34N 51°57' E 004°08'0 0.0
2015-Jun-02 07:33N 51°57' E 004°08'0 0.0
2015-Jun-02 06:33N 51°57' E 004°08'0 0.0
2015-Jun-02 05:33N 51°57' E 004°08'0 0.0
2015-Jun-02 04:33N 51°57' E 004°08'0 0.0
2015-Jun-02 03:30N 51°57' E 004°08'0 0.0
2015-Jun-02 02:33N 51°57' E 004°08'0 0.0
2015-Jun-02 01:33N 51°57' E 004°08'0 0.0
2015-Jun-02 00:33N 51°57' E 004°08'0 0.0
2015-Jun-01 23:33N 51°57' E 004°08'0 0.0
2015-Jun-01 22:33N 51°57' E 004°08'0 0.0
2015-Jun-01 21:34N 51°57' E 004°08'0 0.0
2015-Jun-01 20:33N 51°57' E 004°08'0 0.0
2015-Jun-01 19:33N 51°57' E 004°08'0 0.0
2015-Jun-01 18:33N 51°57' E 004°08'0 0.0
2015-Jun-01 17:33N 51°57' E 004°08'0 0.0
2015-Jun-01 16:33N 51°57' E 004°08'0 0.0
2015-Jun-01 15:33N 51°57' E 004°08'0 0.0
2015-Jun-01 14:33N 51°57' E 004°08'  

Dump ship's entire track history